sensor_id;sensor_type;location;lat;lon;timestamp;P1;durP1;ratioP1;P2;durP2;ratioP2
27201;SDS011;14717;46.924;15.474;2022-11-14T00:01:56;32.72;;;15.80;;
27201;SDS011;14717;46.924;15.474;2022-11-14T00:04:21;28.63;;;14.88;;
27201;SDS011;14717;46.924;15.474;2022-11-14T00:06:46;26.67;;;14.90;;
27201;SDS011;14717;46.924;15.474;2022-11-14T00:09:12;25.50;;;14.77;;
27201;SDS011;14717;46.924;15.474;2022-11-14T00:11:37;27.73;;;15.07;;
27201;SDS011;14717;46.924;15.474;2022-11-14T00:14:03;25.98;;;14.18;;
27201;SDS011;14717;46.924;15.474;2022-11-14T00:16:28;28.63;;;15.40;;
27201;SDS011;14717;46.924;15.474;2022-11-14T00:18:53;28.25;;;14.55;;
27201;SDS011;14717;46.924;15.474;2022-11-14T00:21:19;28.38;;;14.52;;
27201;SDS011;14717;46.924;15.474;2022-11-14T00:23:44;28.02;;;14.57;;
27201;SDS011;14717;46.924;15.474;2022-11-14T00:26:09;25.45;;;14.90;;
27201;SDS011;14717;46.924;15.474;2022-11-14T00:28:35;30.17;;;15.63;;
27201;SDS011;14717;46.924;15.474;2022-11-14T00:31:00;28.23;;;14.23;;
27201;SDS011;14717;46.924;15.474;2022-11-14T00:33:25;26.60;;;14.50;;
27201;SDS011;14717;46.924;15.474;2022-11-14T00:35:54;25.70;;;13.77;;
27201;SDS011;14717;46.924;15.474;2022-11-14T00:38:20;31.02;;;15.77;;
27201;SDS011;14717;46.924;15.474;2022-11-14T00:40:47;27.42;;;14.18;;
27201;SDS011;14717;46.924;15.474;2022-11-14T00:43:12;25.42;;;14.63;;
27201;SDS011;14717;46.924;15.474;2022-11-14T00:45:38;25.80;;;13.90;;
27201;SDS011;14717;46.924;15.474;2022-11-14T00:48:03;26.42;;;14.45;;
27201;SDS011;14717;46.924;15.474;2022-11-14T00:50:29;30.60;;;15.05;;
27201;SDS011;14717;46.924;15.474;2022-11-14T00:52:54;28.88;;;14.65;;
27201;SDS011;14717;46.924;15.474;2022-11-14T00:55:19;26.95;;;14.90;;
27201;SDS011;14717;46.924;15.474;2022-11-14T00:57:45;27.15;;;13.57;;
27201;SDS011;14717;46.924;15.474;2022-11-14T01:00:11;26.95;;;14.15;;
27201;SDS011;14717;46.924;15.474;2022-11-14T01:02:37;25.98;;;14.85;;
27201;SDS011;14717;46.924;15.474;2022-11-14T01:05:03;29.25;;;14.57;;
27201;SDS011;14717;46.924;15.474;2022-11-14T01:07:29;24.33;;;13.40;;
27201;SDS011;14717;46.924;15.474;2022-11-14T01:09:54;30.48;;;14.32;;
27201;SDS011;14717;46.924;15.474;2022-11-14T01:12:20;27.33;;;14.25;;
27201;SDS011;14717;46.924;15.474;2022-11-14T01:14:45;26.50;;;13.60;;
27201;SDS011;14717;46.924;15.474;2022-11-14T01:17:11;25.15;;;13.70;;
27201;SDS011;14717;46.924;15.474;2022-11-14T01:19:36;27.90;;;13.88;;
27201;SDS011;14717;46.924;15.474;2022-11-14T01:22:02;23.02;;;13.05;;
27201;SDS011;14717;46.924;15.474;2022-11-14T01:24:27;28.48;;;13.60;;
27201;SDS011;14717;46.924;15.474;2022-11-14T01:26:54;25.00;;;13.65;;
27201;SDS011;14717;46.924;15.474;2022-11-14T01:29:20;23.60;;;13.93;;
27201;SDS011;14717;46.924;15.474;2022-11-14T01:31:45;28.42;;;15.27;;
27201;SDS011;14717;46.924;15.474;2022-11-14T01:34:11;24.58;;;14.10;;
27201;SDS011;14717;46.924;15.474;2022-11-14T01:36:36;26.02;;;13.40;;
27201;SDS011;14717;46.924;15.474;2022-11-14T01:39:01;26.10;;;13.57;;
27201;SDS011;14717;46.924;15.474;2022-11-14T01:41:27;23.70;;;13.65;;
27201;SDS011;14717;46.924;15.474;2022-11-14T01:43:52;24.20;;;13.30;;
27201;SDS011;14717;46.924;15.474;2022-11-14T01:46:18;25.08;;;13.45;;
27201;SDS011;14717;46.924;15.474;2022-11-14T01:51:30;22.58;;;12.00;;
27201;SDS011;14717;46.924;15.474;2022-11-14T01:54:02;24.13;;;13.18;;
27201;SDS011;14717;46.924;15.474;2022-11-14T01:56:35;20.05;;;12.13;;
27201;SDS011;14717;46.924;15.474;2022-11-14T01:59:06;23.90;;;13.23;;
27201;SDS011;14717;46.924;15.474;2022-11-14T02:01:39;20.50;;;12.45;;
27201;SDS011;14717;46.924;15.474;2022-11-14T02:04:08;24.20;;;12.77;;
27201;SDS011;14717;46.924;15.474;2022-11-14T02:06:35;23.50;;;12.73;;
27201;SDS011;14717;46.924;15.474;2022-11-14T02:09:03;24.80;;;13.00;;
27201;SDS011;14717;46.924;15.474;2022-11-14T02:11:30;27.02;;;12.80;;
27201;SDS011;14717;46.924;15.474;2022-11-14T02:13:58;26.80;;;13.63;;
27201;SDS011;14717;46.924;15.474;2022-11-14T02:16:25;25.80;;;13.55;;
27201;SDS011;14717;46.924;15.474;2022-11-14T02:18:51;29.55;;;13.65;;
27201;SDS011;14717;46.924;15.474;2022-11-14T02:21:17;27.58;;;14.13;;
27201;SDS011;14717;46.924;15.474;2022-11-14T02:23:42;27.15;;;13.48;;
27201;SDS011;14717;46.924;15.474;2022-11-14T02:26:08;24.27;;;13.80;;
27201;SDS011;14717;46.924;15.474;2022-11-14T02:28:33;27.23;;;14.15;;
27201;SDS011;14717;46.924;15.474;2022-11-14T02:30:58;28.65;;;13.77;;
27201;SDS011;14717;46.924;15.474;2022-11-14T02:33:24;26.13;;;14.13;;
27201;SDS011;14717;46.924;15.474;2022-11-14T02:35:49;28.23;;;14.07;;
27201;SDS011;14717;46.924;15.474;2022-11-14T02:38:14;25.63;;;13.30;;
27201;SDS011;14717;46.924;15.474;2022-11-14T02:40:40;25.85;;;13.35;;
27201;SDS011;14717;46.924;15.474;2022-11-14T02:43:05;27.92;;;13.45;;
27201;SDS011;14717;46.924;15.474;2022-11-14T02:45:31;24.52;;;13.38;;
27201;SDS011;14717;46.924;15.474;2022-11-14T02:47:56;26.90;;;13.98;;
27201;SDS011;14717;46.924;15.474;2022-11-14T02:50:22;24.52;;;13.32;;
27201;SDS011;14717;46.924;15.474;2022-11-14T02:52:47;24.65;;;14.05;;
27201;SDS011;14717;46.924;15.474;2022-11-14T02:55:13;27.80;;;13.38;;
27201;SDS011;14717;46.924;15.474;2022-11-14T02:57:38;25.73;;;13.68;;
27201;SDS011;14717;46.924;15.474;2022-11-14T03:00:04;22.92;;;13.95;;
27201;SDS011;14717;46.924;15.474;2022-11-14T03:02:30;25.42;;;12.48;;
27201;SDS011;14717;46.924;15.474;2022-11-14T03:04:55;24.85;;;13.25;;
27201;SDS011;14717;46.924;15.474;2022-11-14T03:07:20;23.98;;;13.32;;
27201;SDS011;14717;46.924;15.474;2022-11-14T03:09:46;21.88;;;12.75;;
27201;SDS011;14717;46.924;15.474;2022-11-14T03:12:14;24.90;;;14.23;;
27201;SDS011;14717;46.924;15.474;2022-11-14T03:14:40;22.48;;;12.65;;
27201;SDS011;14717;46.924;15.474;2022-11-14T03:17:05;23.10;;;12.50;;
27201;SDS011;14717;46.924;15.474;2022-11-14T03:19:30;23.73;;;12.88;;
27201;SDS011;14717;46.924;15.474;2022-11-14T03:21:56;24.13;;;13.02;;
27201;SDS011;14717;46.924;15.474;2022-11-14T03:24:21;24.60;;;12.88;;
27201;SDS011;14717;46.924;15.474;2022-11-14T03:26:46;26.63;;;13.95;;
27201;SDS011;14717;46.924;15.474;2022-11-14T03:29:12;22.77;;;12.40;;
27201;SDS011;14717;46.924;15.474;2022-11-14T03:31:37;24.40;;;13.25;;
27201;SDS011;14717;46.924;15.474;2022-11-14T03:34:03;23.27;;;13.13;;
27201;SDS011;14717;46.924;15.474;2022-11-14T03:36:28;23.98;;;13.50;;
27201;SDS011;14717;46.924;15.474;2022-11-14T03:38:53;21.85;;;12.85;;
27201;SDS011;14717;46.924;15.474;2022-11-14T03:41:19;24.67;;;13.50;;
27201;SDS011;14717;46.924;15.474;2022-11-14T03:43:44;22.98;;;13.02;;
27201;SDS011;14717;46.924;15.474;2022-11-14T03:46:09;24.35;;;13.30;;
27201;SDS011;14717;46.924;15.474;2022-11-14T03:48:35;26.30;;;14.27;;
27201;SDS011;14717;46.924;15.474;2022-11-14T03:51:00;21.35;;;13.10;;
27201;SDS011;14717;46.924;15.474;2022-11-14T03:53:25;25.20;;;12.80;;
27201;SDS011;14717;46.924;15.474;2022-11-14T03:55:52;21.25;;;13.05;;
27201;SDS011;14717;46.924;15.474;2022-11-14T03:58:18;21.17;;;12.45;;
27201;SDS011;14717;46.924;15.474;2022-11-14T04:00:43;21.98;;;12.48;;
27201;SDS011;14717;46.924;15.474;2022-11-14T04:03:09;23.75;;;12.77;;
27201;SDS011;14717;46.924;15.474;2022-11-14T04:05:34;23.88;;;12.07;;
27201;SDS011;14717;46.924;15.474;2022-11-14T04:07:59;25.52;;;12.18;;
27201;SDS011;14717;46.924;15.474;2022-11-14T04:10:25;24.50;;;13.93;;
27201;SDS011;14717;46.924;15.474;2022-11-14T04:12:51;23.50;;;12.80;;
27201;SDS011;14717;46.924;15.474;2022-11-14T04:15:17;23.67;;;13.70;;
27201;SDS011;14717;46.924;15.474;2022-11-14T04:17:44;23.33;;;12.55;;
27201;SDS011;14717;46.924;15.474;2022-11-14T04:20:10;23.40;;;13.05;;
27201;SDS011;14717;46.924;15.474;2022-11-14T04:22:36;25.48;;;13.07;;
27201;SDS011;14717;46.924;15.474;2022-11-14T04:25:02;24.27;;;12.73;;
27201;SDS011;14717;46.924;15.474;2022-11-14T04:27:27;23.38;;;13.48;;
27201;SDS011;14717;46.924;15.474;2022-11-14T04:29:53;22.27;;;12.52;;
27201;SDS011;14717;46.924;15.474;2022-11-14T04:32:18;21.77;;;11.75;;
27201;SDS011;14717;46.924;15.474;2022-11-14T04:34:43;23.23;;;13.15;;
27201;SDS011;14717;46.924;15.474;2022-11-14T04:37:09;26.70;;;13.10;;
27201;SDS011;14717;46.924;15.474;2022-11-14T04:39:34;21.70;;;13.05;;
27201;SDS011;14717;46.924;15.474;2022-11-14T04:41:59;27.73;;;13.93;;
27201;SDS011;14717;46.924;15.474;2022-11-14T04:44:25;22.08;;;13.05;;
27201;SDS011;14717;46.924;15.474;2022-11-14T04:46:50;20.92;;;12.73;;
27201;SDS011;14717;46.924;15.474;2022-11-14T04:49:15;22.25;;;13.20;;
27201;SDS011;14717;46.924;15.474;2022-11-14T04:51:41;31.63;;;14.68;;
27201;SDS011;14717;46.924;15.474;2022-11-14T04:54:07;26.35;;;14.65;;
27201;SDS011;14717;46.924;15.474;2022-11-14T04:56:32;26.67;;;13.82;;
27201;SDS011;14717;46.924;15.474;2022-11-14T04:58:59;24.50;;;13.55;;
27201;SDS011;14717;46.924;15.474;2022-11-14T05:01:25;25.48;;;13.68;;
27201;SDS011;14717;46.924;15.474;2022-11-14T05:03:50;25.80;;;14.18;;
27201;SDS011;14717;46.924;15.474;2022-11-14T05:06:15;24.75;;;13.75;;
27201;SDS011;14717;46.924;15.474;2022-11-14T05:08:41;24.25;;;13.80;;
27201;SDS011;14717;46.924;15.474;2022-11-14T05:11:11;25.20;;;14.40;;
27201;SDS011;14717;46.924;15.474;2022-11-14T05:13:38;23.85;;;13.73;;
27201;SDS011;14717;46.924;15.474;2022-11-14T05:16:03;28.70;;;13.70;;
27201;SDS011;14717;46.924;15.474;2022-11-14T05:18:29;24.38;;;12.35;;
27201;SDS011;14717;46.924;15.474;2022-11-14T05:20:56;25.00;;;13.40;;
27201;SDS011;14717;46.924;15.474;2022-11-14T05:23:23;24.50;;;12.70;;
27201;SDS011;14717;46.924;15.474;2022-11-14T05:26:01;24.15;;;13.43;;
27201;SDS011;14717;46.924;15.474;2022-11-14T05:28:31;25.50;;;13.18;;
27201;SDS011;14717;46.924;15.474;2022-11-14T05:31:03;20.27;;;12.70;;
27201;SDS011;14717;46.924;15.474;2022-11-14T05:33:33;22.15;;;13.02;;
27201;SDS011;14717;46.924;15.474;2022-11-14T05:36:03;21.80;;;12.68;;
27201;SDS011;14717;46.924;15.474;2022-11-14T05:38:33;22.63;;;12.80;;
27201;SDS011;14717;46.924;15.474;2022-11-14T05:40:58;22.98;;;13.20;;
27201;SDS011;14717;46.924;15.474;2022-11-14T05:43:24;22.17;;;13.05;;
27201;SDS011;14717;46.924;15.474;2022-11-14T05:45:53;19.15;;;12.15;;
27201;SDS011;14717;46.924;15.474;2022-11-14T05:48:23;22.67;;;12.45;;
27201;SDS011;14717;46.924;15.474;2022-11-14T05:50:52;22.13;;;13.88;;
27201;SDS011;14717;46.924;15.474;2022-11-14T05:53:19;26.33;;;13.27;;
27201;SDS011;14717;46.924;15.474;2022-11-14T05:55:44;21.85;;;12.75;;
27201;SDS011;14717;46.924;15.474;2022-11-14T05:58:09;26.40;;;13.10;;
27201;SDS011;14717;46.924;15.474;2022-11-14T06:00:35;22.35;;;12.65;;
27201;SDS011;14717;46.924;15.474;2022-11-14T06:03:00;25.38;;;13.65;;
27201;SDS011;14717;46.924;15.474;2022-11-14T06:05:25;24.25;;;13.68;;
27201;SDS011;14717;46.924;15.474;2022-11-14T06:07:57;25.80;;;14.57;;
27201;SDS011;14717;46.924;15.474;2022-11-14T06:10:23;25.50;;;14.40;;
27201;SDS011;14717;46.924;15.474;2022-11-14T06:12:49;27.33;;;14.48;;
27201;SDS011;14717;46.924;15.474;2022-11-14T06:15:15;28.30;;;14.32;;
27201;SDS011;14717;46.924;15.474;2022-11-14T06:17:40;26.75;;;13.90;;
27201;SDS011;14717;46.924;15.474;2022-11-14T06:20:06;27.15;;;16.38;;
27201;SDS011;14717;46.924;15.474;2022-11-14T06:22:32;26.13;;;14.68;;
27201;SDS011;14717;46.924;15.474;2022-11-14T06:24:59;24.98;;;14.07;;
27201;SDS011;14717;46.924;15.474;2022-11-14T06:27:24;32.88;;;18.90;;
27201;SDS011;14717;46.924;15.474;2022-11-14T06:29:49;33.67;;;17.23;;
27201;SDS011;14717;46.924;15.474;2022-11-14T06:32:15;25.70;;;15.32;;
27201;SDS011;14717;46.924;15.474;2022-11-14T06:34:40;28.88;;;14.95;;
27201;SDS011;14717;46.924;15.474;2022-11-14T06:37:05;23.35;;;13.60;;
27201;SDS011;14717;46.924;15.474;2022-11-14T06:39:31;25.30;;;13.68;;
27201;SDS011;14717;46.924;15.474;2022-11-14T06:41:56;26.52;;;14.18;;
27201;SDS011;14717;46.924;15.474;2022-11-14T06:44:21;26.33;;;13.85;;
27201;SDS011;14717;46.924;15.474;2022-11-14T06:46:47;25.50;;;12.95;;
27201;SDS011;14717;46.924;15.474;2022-11-14T06:49:12;25.65;;;13.45;;
27201;SDS011;14717;46.924;15.474;2022-11-14T06:51:37;20.42;;;12.20;;
27201;SDS011;14717;46.924;15.474;2022-11-14T06:54:03;28.20;;;13.40;;
27201;SDS011;14717;46.924;15.474;2022-11-14T06:56:28;22.90;;;13.55;;
27201;SDS011;14717;46.924;15.474;2022-11-14T06:58:53;19.10;;;12.00;;
27201;SDS011;14717;46.924;15.474;2022-11-14T07:01:20;23.42;;;13.00;;
27201;SDS011;14717;46.924;15.474;2022-11-14T07:03:50;22.35;;;12.25;;
27201;SDS011;14717;46.924;15.474;2022-11-14T07:06:20;27.85;;;14.13;;
27201;SDS011;14717;46.924;15.474;2022-11-14T07:08:47;24.08;;;12.82;;
27201;SDS011;14717;46.924;15.474;2022-11-14T07:11:14;24.83;;;13.82;;
27201;SDS011;14717;46.924;15.474;2022-11-14T07:13:47;24.42;;;12.85;;
27201;SDS011;14717;46.924;15.474;2022-11-14T07:16:33;22.17;;;11.30;;
27201;SDS011;14717;46.924;15.474;2022-11-14T07:19:00;23.10;;;12.65;;
27201;SDS011;14717;46.924;15.474;2022-11-14T07:21:27;24.90;;;12.10;;
27201;SDS011;14717;46.924;15.474;2022-11-14T07:23:54;24.02;;;12.73;;
27201;SDS011;14717;46.924;15.474;2022-11-14T07:26:20;21.05;;;12.27;;
27201;SDS011;14717;46.924;15.474;2022-11-14T07:28:46;23.85;;;13.35;;
27201;SDS011;14717;46.924;15.474;2022-11-14T07:31:15;29.30;;;13.65;;
27201;SDS011;14717;46.924;15.474;2022-11-14T07:33:42;24.58;;;13.70;;
27201;SDS011;14717;46.924;15.474;2022-11-14T07:38:35;23.70;;;12.73;;
27201;SDS011;14717;46.924;15.474;2022-11-14T07:41:02;26.17;;;12.80;;
27201;SDS011;14717;46.924;15.474;2022-11-14T07:43:30;22.75;;;12.07;;
27201;SDS011;14717;46.924;15.474;2022-11-14T07:45:59;25.40;;;12.82;;
27201;SDS011;14717;46.924;15.474;2022-11-14T07:48:26;27.00;;;14.75;;
27201;SDS011;14717;46.924;15.474;2022-11-14T07:50:52;25.35;;;13.90;;
27201;SDS011;14717;46.924;15.474;2022-11-14T07:53:18;25.25;;;13.63;;
27201;SDS011;14717;46.924;15.474;2022-11-14T07:55:43;26.95;;;14.27;;
27201;SDS011;14717;46.924;15.474;2022-11-14T07:58:08;21.58;;;13.32;;
27201;SDS011;14717;46.924;15.474;2022-11-14T08:00:34;23.67;;;14.13;;
27201;SDS011;14717;46.924;15.474;2022-11-14T08:02:59;32.63;;;14.73;;
27201;SDS011;14717;46.924;15.474;2022-11-14T08:05:24;26.30;;;14.68;;
27201;SDS011;14717;46.924;15.474;2022-11-14T08:07:50;25.10;;;13.48;;
27201;SDS011;14717;46.924;15.474;2022-11-14T08:10:16;25.10;;;13.50;;
27201;SDS011;14717;46.924;15.474;2022-11-14T08:12:42;27.10;;;13.50;;
27201;SDS011;14717;46.924;15.474;2022-11-14T08:15:09;27.80;;;14.73;;
27201;SDS011;14717;46.924;15.474;2022-11-14T08:17:36;31.23;;;15.27;;
27201;SDS011;14717;46.924;15.474;2022-11-14T08:22:28;29.67;;;14.25;;
27201;SDS011;14717;46.924;15.474;2022-11-14T08:27:20;30.00;;;13.75;;
27201;SDS011;14717;46.924;15.474;2022-11-14T08:29:45;26.00;;;14.02;;
27201;SDS011;14717;46.924;15.474;2022-11-14T08:32:11;23.48;;;13.80;;
27201;SDS011;14717;46.924;15.474;2022-11-14T08:34:36;24.58;;;13.35;;
27201;SDS011;14717;46.924;15.474;2022-11-14T08:37:02;30.65;;;14.52;;
27201;SDS011;14717;46.924;15.474;2022-11-14T08:39:27;26.38;;;14.77;;
27201;SDS011;14717;46.924;15.474;2022-11-14T08:41:53;25.08;;;14.05;;
27201;SDS011;14717;46.924;15.474;2022-11-14T08:44:19;23.17;;;13.57;;
27201;SDS011;14717;46.924;15.474;2022-11-14T08:46:44;26.35;;;13.82;;
27201;SDS011;14717;46.924;15.474;2022-11-14T08:49:09;27.85;;;13.93;;
27201;SDS011;14717;46.924;15.474;2022-11-14T08:51:35;26.50;;;15.00;;
27201;SDS011;14717;46.924;15.474;2022-11-14T08:54:01;26.75;;;14.07;;
27201;SDS011;14717;46.924;15.474;2022-11-14T08:56:26;25.83;;;14.25;;
27201;SDS011;14717;46.924;15.474;2022-11-14T08:58:52;30.65;;;15.02;;
27201;SDS011;14717;46.924;15.474;2022-11-14T09:01:17;25.88;;;14.27;;
27201;SDS011;14717;46.924;15.474;2022-11-14T09:03:42;27.27;;;14.20;;
27201;SDS011;14717;46.924;15.474;2022-11-14T09:06:08;27.92;;;14.40;;
27201;SDS011;14717;46.924;15.474;2022-11-14T09:08:33;28.95;;;14.43;;
27201;SDS011;14717;46.924;15.474;2022-11-14T09:10:59;26.83;;;13.88;;
27201;SDS011;14717;46.924;15.474;2022-11-14T09:13:30;25.98;;;14.73;;
27201;SDS011;14717;46.924;15.474;2022-11-14T09:15:57;24.77;;;13.88;;
27201;SDS011;14717;46.924;15.474;2022-11-14T09:18:22;26.20;;;14.18;;
27201;SDS011;14717;46.924;15.474;2022-11-14T09:20:47;23.15;;;13.73;;
27201;SDS011;14717;46.924;15.474;2022-11-14T09:23:13;23.58;;;13.57;;
27201;SDS011;14717;46.924;15.474;2022-11-14T09:25:38;25.55;;;14.15;;
27201;SDS011;14717;46.924;15.474;2022-11-14T09:28:07;25.17;;;13.63;;
27201;SDS011;14717;46.924;15.474;2022-11-14T09:30:33;24.95;;;14.38;;
27201;SDS011;14717;46.924;15.474;2022-11-14T09:33:03;26.50;;;14.85;;
27201;SDS011;14717;46.924;15.474;2022-11-14T09:35:29;28.55;;;13.65;;
27201;SDS011;14717;46.924;15.474;2022-11-14T09:37:59;25.77;;;13.80;;
27201;SDS011;14717;46.924;15.474;2022-11-14T09:40:29;26.45;;;14.30;;
27201;SDS011;14717;46.924;15.474;2022-11-14T09:43:04;23.65;;;12.73;;
27201;SDS011;14717;46.924;15.474;2022-11-14T09:45:47;28.08;;;14.40;;
27201;SDS011;14717;46.924;15.474;2022-11-14T09:48:17;25.33;;;13.65;;
27201;SDS011;14717;46.924;15.474;2022-11-14T09:50:47;30.90;;;14.65;;
27201;SDS011;14717;46.924;15.474;2022-11-14T09:53:32;26.92;;;14.30;;
27201;SDS011;14717;46.924;15.474;2022-11-14T09:56:01;27.30;;;13.73;;
27201;SDS011;14717;46.924;15.474;2022-11-14T09:58:26;27.15;;;14.55;;
27201;SDS011;14717;46.924;15.474;2022-11-14T10:16:34;26.23;;;14.18;;
27201;SDS011;14717;46.924;15.474;2022-11-14T10:26:56;25.23;;;13.07;;
27201;SDS011;14717;46.924;15.474;2022-11-14T10:38:03;24.63;;;13.18;;
27201;SDS011;14717;46.924;15.474;2022-11-14T10:40:46;28.35;;;13.30;;
27201;SDS011;14717;46.924;15.474;2022-11-14T10:43:34;25.38;;;13.50;;
27201;SDS011;14717;46.924;15.474;2022-11-14T10:48:49;25.52;;;12.85;;
27201;SDS011;14717;46.924;15.474;2022-11-14T10:51:20;24.50;;;13.65;;
27201;SDS011;14717;46.924;15.474;2022-11-14T10:56:56;27.17;;;13.48;;
27201;SDS011;14717;46.924;15.474;2022-11-14T10:59:20;24.08;;;13.27;;
27201;SDS011;14717;46.924;15.474;2022-11-14T11:04:19;23.15;;;12.95;;
27201;SDS011;14717;46.924;15.474;2022-11-14T11:09:37;25.48;;;13.32;;
27201;SDS011;14717;46.924;15.474;2022-11-14T11:12:23;24.88;;;12.77;;
27201;SDS011;14717;46.924;15.474;2022-11-14T11:17:52;25.88;;;13.40;;
27201;SDS011;14717;46.924;15.474;2022-11-14T11:25:36;29.20;;;12.88;;
27201;SDS011;14717;46.924;15.474;2022-11-14T11:30:34;28.95;;;12.82;;
27201;SDS011;14717;46.924;15.474;2022-11-14T11:33:16;26.60;;;13.45;;
27201;SDS011;14717;46.924;15.474;2022-11-14T11:35:52;25.77;;;12.90;;
27201;SDS011;14717;46.924;15.474;2022-11-14T11:38:20;27.02;;;13.05;;
27201;SDS011;14717;46.924;15.474;2022-11-14T11:40:51;24.48;;;13.23;;
27201;SDS011;14717;46.924;15.474;2022-11-14T11:43:46;23.98;;;13.57;;
27201;SDS011;14717;46.924;15.474;2022-11-14T11:46:21;27.50;;;13.50;;
27201;SDS011;14717;46.924;15.474;2022-11-14T11:49:11;23.27;;;13.10;;
27201;SDS011;14717;46.924;15.474;2022-11-14T11:51:44;26.90;;;13.60;;
27201;SDS011;14717;46.924;15.474;2022-11-14T11:56:58;23.83;;;12.63;;
27201;SDS011;14717;46.924;15.474;2022-11-14T11:59:38;26.92;;;13.38;;
27201;SDS011;14717;46.924;15.474;2022-11-14T12:02:21;23.08;;;12.93;;
27201;SDS011;14717;46.924;15.474;2022-11-14T12:04:48;22.67;;;13.23;;
27201;SDS011;14717;46.924;15.474;2022-11-14T12:07:17;27.23;;;13.82;;
27201;SDS011;14717;46.924;15.474;2022-11-14T12:09:45;25.65;;;12.48;;
27201;SDS011;14717;46.924;15.474;2022-11-14T12:12:31;25.50;;;13.10;;
27201;SDS011;14717;46.924;15.474;2022-11-14T12:23:58;24.48;;;12.82;;
27201;SDS011;14717;46.924;15.474;2022-11-14T12:31:49;22.55;;;12.65;;
27201;SDS011;14717;46.924;15.474;2022-11-14T12:36:50;25.80;;;13.05;;
27201;SDS011;14717;46.924;15.474;2022-11-14T12:39:28;30.70;;;14.32;;
27201;SDS011;14717;46.924;15.474;2022-11-14T12:42:02;25.98;;;13.95;;
27201;SDS011;14717;46.924;15.474;2022-11-14T13:01:02;24.20;;;13.93;;
27201;SDS011;14717;46.924;15.474;2022-11-14T13:06:10;25.58;;;15.18;;
27201;SDS011;14717;46.924;15.474;2022-11-14T13:14:14;33.63;;;17.83;;
27201;SDS011;14717;46.924;15.474;2022-11-14T13:17:08;34.15;;;17.50;;
27201;SDS011;14717;46.924;15.474;2022-11-14T13:19:58;30.27;;;16.00;;
27201;SDS011;14717;46.924;15.474;2022-11-14T13:26:33;31.20;;;16.88;;
27201;SDS011;14717;46.924;15.474;2022-11-14T13:33:44;39.35;;;18.00;;
27201;SDS011;14717;46.924;15.474;2022-11-14T13:36:26;34.63;;;17.77;;
27201;SDS011;14717;46.924;15.474;2022-11-14T13:39:18;32.67;;;17.33;;
27201;SDS011;14717;46.924;15.474;2022-11-14T13:42:11;34.17;;;17.23;;
27201;SDS011;14717;46.924;15.474;2022-11-14T13:50:48;38.08;;;18.10;;
27201;SDS011;14717;46.924;15.474;2022-11-14T13:53:21;35.60;;;19.60;;
27201;SDS011;14717;46.924;15.474;2022-11-14T13:55:55;33.30;;;18.35;;
27201;SDS011;14717;46.924;15.474;2022-11-14T14:23:11;40.40;;;19.90;;
27201;SDS011;14717;46.924;15.474;2022-11-14T14:31:44;42.67;;;18.50;;
27201;SDS011;14717;46.924;15.474;2022-11-14T14:34:20;37.22;;;18.05;;
27201;SDS011;14717;46.924;15.474;2022-11-14T14:36:53;37.33;;;17.08;;
27201;SDS011;14717;46.924;15.474;2022-11-14T14:39:24;36.80;;;17.63;;
27201;SDS011;14717;46.924;15.474;2022-11-14T14:41:51;39.35;;;18.58;;
27201;SDS011;14717;46.924;15.474;2022-11-14T14:49:58;36.58;;;17.33;;
27201;SDS011;14717;46.924;15.474;2022-11-14T14:52:29;37.95;;;17.90;;
27201;SDS011;14717;46.924;15.474;2022-11-14T14:55:00;42.47;;;19.33;;
27201;SDS011;14717;46.924;15.474;2022-11-14T14:57:27;39.72;;;18.27;;
27201;SDS011;14717;46.924;15.474;2022-11-14T15:00:00;41.60;;;18.20;;
27201;SDS011;14717;46.924;15.474;2022-11-14T15:02:29;41.83;;;19.33;;
27201;SDS011;14717;46.924;15.474;2022-11-14T15:04:54;44.35;;;19.50;;
27201;SDS011;14717;46.924;15.474;2022-11-14T15:07:23;45.15;;;20.25;;
27201;SDS011;14717;46.924;15.474;2022-11-14T15:09:51;47.65;;;21.95;;
27201;SDS011;14717;46.924;15.474;2022-11-14T15:12:26;45.13;;;20.45;;
27201;SDS011;14717;46.924;15.474;2022-11-14T15:14:53;49.50;;;21.25;;
27201;SDS011;14717;46.924;15.474;2022-11-14T15:17:20;52.47;;;21.73;;
27201;SDS011;14717;46.924;15.474;2022-11-14T15:19:47;53.65;;;22.35;;
27201;SDS011;14717;46.924;15.474;2022-11-14T15:24:43;44.72;;;20.52;;
27201;SDS011;14717;46.924;15.474;2022-11-14T15:27:26;46.55;;;21.05;;
27201;SDS011;14717;46.924;15.474;2022-11-14T15:29:53;51.42;;;22.02;;
27201;SDS011;14717;46.924;15.474;2022-11-14T15:32:23;50.60;;;22.83;;
27201;SDS011;14717;46.924;15.474;2022-11-14T15:37:36;48.38;;;22.70;;
27201;SDS011;14717;46.924;15.474;2022-11-14T15:40:18;44.63;;;19.58;;
27201;SDS011;14717;46.924;15.474;2022-11-14T15:42:45;47.95;;;22.33;;
27201;SDS011;14717;46.924;15.474;2022-11-14T15:45:23;49.72;;;21.63;;
27201;SDS011;14717;46.924;15.474;2022-11-14T15:48:00;47.78;;;21.48;;
27201;SDS011;14717;46.924;15.474;2022-11-14T15:50:30;52.15;;;22.90;;
27201;SDS011;14717;46.924;15.474;2022-11-14T15:52:58;46.55;;;21.58;;
27201;SDS011;14717;46.924;15.474;2022-11-14T15:55:24;51.70;;;22.20;;
27201;SDS011;14717;46.924;15.474;2022-11-14T15:57:50;48.70;;;22.38;;
27201;SDS011;14717;46.924;15.474;2022-11-14T16:00:16;47.58;;;20.45;;
27201;SDS011;14717;46.924;15.474;2022-11-14T16:02:43;50.15;;;22.55;;
27201;SDS011;14717;46.924;15.474;2022-11-14T16:05:14;50.25;;;21.95;;
27201;SDS011;14717;46.924;15.474;2022-11-14T16:07:41;49.15;;;22.27;;
27201;SDS011;14717;46.924;15.474;2022-11-14T16:10:14;45.92;;;20.67;;
27201;SDS011;14717;46.924;15.474;2022-11-14T16:12:43;49.47;;;22.15;;
27201;SDS011;14717;46.924;15.474;2022-11-14T16:15:09;44.67;;;21.50;;
27201;SDS011;14717;46.924;15.474;2022-11-14T16:20:05;48.95;;;21.15;;
27201;SDS011;14717;46.924;15.474;2022-11-14T16:22:34;47.67;;;21.73;;
27201;SDS011;14717;46.924;15.474;2022-11-14T16:25:00;52.88;;;22.02;;
27201;SDS011;14717;46.924;15.474;2022-11-14T16:27:25;47.03;;;21.38;;
27201;SDS011;14717;46.924;15.474;2022-11-14T16:29:51;48.45;;;21.63;;
27201;SDS011;14717;46.924;15.474;2022-11-14T16:32:17;50.88;;;21.65;;
27201;SDS011;14717;46.924;15.474;2022-11-14T16:34:42;49.75;;;23.15;;
27201;SDS011;14717;46.924;15.474;2022-11-14T16:37:10;50.17;;;24.27;;
27201;SDS011;14717;46.924;15.474;2022-11-14T16:39:37;55.15;;;25.52;;
27201;SDS011;14717;46.924;15.474;2022-11-14T16:42:03;50.35;;;22.77;;
27201;SDS011;14717;46.924;15.474;2022-11-14T16:44:29;49.78;;;23.17;;
27201;SDS011;14717;46.924;15.474;2022-11-14T16:46:55;49.97;;;22.77;;
27201;SDS011;14717;46.924;15.474;2022-11-14T16:49:20;46.10;;;22.77;;
27201;SDS011;14717;46.924;15.474;2022-11-14T16:51:46;61.90;;;27.83;;
27201;SDS011;14717;46.924;15.474;2022-11-14T16:54:16;55.05;;;23.35;;
27201;SDS011;14717;46.924;15.474;2022-11-14T16:56:43;53.40;;;24.98;;
27201;SDS011;14717;46.924;15.474;2022-11-14T16:59:09;54.03;;;23.67;;
27201;SDS011;14717;46.924;15.474;2022-11-14T17:04:00;59.05;;;27.88;;